createdAt,value
2022-09-24T00:01:16.379Z,9.77
2022-09-24T00:03:45.459Z,9.47
2022-09-24T00:06:15.387Z,9.53
2022-09-24T00:08:42.154Z,9.37
2022-09-24T00:11:12.008Z,9.27
2022-09-24T00:13:39.047Z,9.50
2022-09-24T00:16:07.759Z,11.97
2022-09-24T00:18:34.523Z,9.23
2022-09-24T00:21:01.138Z,11.23
2022-09-24T00:23:27.565Z,11.43
2022-09-24T00:26:12.720Z,9.33
2022-09-24T00:28:39.087Z,8.53
2022-09-24T00:31:07.158Z,10.07
2022-09-24T00:33:36.924Z,10.53
2022-09-24T00:36:04.995Z,11.77
2022-09-24T00:38:32.245Z,9.90
2022-09-24T00:40:59.631Z,10.27
2022-09-24T00:43:28.990Z,15.23
2022-09-24T00:45:58.274Z,10.97
2022-09-24T00:48:25.179Z,11.93
2022-09-24T00:50:51.844Z,11.73
2022-09-24T00:53:20.050Z,7.17
2022-09-24T00:55:48.541Z,9.83
2022-09-24T00:58:14.893Z,10.43
2022-09-24T01:00:45.729Z,8.27
2022-09-24T01:03:14.204Z,9.90
2022-09-24T01:05:40.605Z,10.63
2022-09-24T01:08:07.392Z,11.47
2022-09-24T01:10:48.935Z,8.13
2022-09-24T01:13:41.171Z,13.53
2022-09-24T01:16:12.215Z,9.43
2022-09-24T01:18:42.246Z,10.93
2022-09-24T01:21:27.343Z,8.90
2022-09-24T01:23:53.700Z,11.67
2022-09-24T01:26:20.166Z,9.93
2022-09-24T01:28:59.606Z,11.90
2022-09-24T01:31:31.591Z,12.23
2022-09-24T01:33:59.462Z,12.63
2022-09-24T01:36:27.080Z,13.53
2022-09-24T01:38:54.455Z,12.37
2022-09-24T01:41:21.108Z,10.10
2022-09-24T01:43:48.482Z,9.33
2022-09-24T01:46:19.875Z,9.03
2022-09-24T01:48:46.450Z,9.63
2022-09-24T01:51:23.645Z,9.37
2022-09-24T01:53:52.851Z,9.90
2022-09-24T01:56:23.912Z,13.00
2022-09-24T01:58:53.818Z,9.53
2022-09-24T02:01:26.591Z,10.70
2022-09-24T02:03:56.504Z,10.00
2022-09-24T02:06:29.277Z,12.47
2022-09-24T02:08:56.842Z,9.03
2022-09-24T02:11:24.544Z,10.67
2022-09-24T02:13:53.845Z,10.67
2022-09-24T02:16:22.915Z,10.73
2022-09-24T02:18:52.444Z,13.30
2022-09-24T02:21:19.630Z,12.20
2022-09-24T02:23:49.882Z,12.00
2022-09-24T02:26:16.503Z,10.10
2022-09-24T02:28:43.025Z,7.57
2022-09-24T02:31:18.806Z,10.23
2022-09-24T02:34:05.187Z,12.20
2022-09-24T02:36:31.868Z,9.17
2022-09-24T02:38:58.783Z,11.20
2022-09-24T02:41:26.066Z,9.13
2022-09-24T02:43:52.680Z,10.97
2022-09-24T02:46:19.367Z,14.90
2022-09-24T02:48:45.741Z,13.97
2022-09-24T02:51:12.092Z,12.77
2022-09-24T02:53:38.493Z,14.27
2022-09-24T02:56:05.086Z,14.50
2022-09-24T02:58:31.643Z,14.27
2022-09-24T03:00:58.022Z,10.00
2022-09-24T03:03:24.394Z,10.70
2022-09-24T03:05:53.046Z,12.17
2022-09-24T03:08:20.034Z,11.83
2022-09-24T03:10:46.876Z,11.37
2022-09-24T03:13:13.644Z,10.57
2022-09-24T03:15:40.139Z,11.23
2022-09-24T03:18:06.519Z,12.90
2022-09-24T03:20:32.860Z,11.00
2022-09-24T03:22:59.178Z,15.33
2022-09-24T03:25:25.689Z,10.57
2022-09-24T03:27:52.013Z,12.27
2022-09-24T03:30:36.921Z,12.27
2022-09-24T03:33:03.329Z,12.67
2022-09-24T03:35:29.722Z,15.60
2022-09-24T03:37:56.070Z,17.57
2022-09-24T03:40:22.601Z,13.63
2022-09-24T03:42:48.993Z,12.43
2022-09-24T03:45:15.367Z,13.27
2022-09-24T03:47:42.743Z,17.53
2022-09-24T03:50:28.190Z,13.03
2022-09-24T03:52:55.062Z,12.80
2022-09-24T03:55:21.384Z,14.17
2022-09-24T03:57:47.795Z,13.03
2022-09-24T04:00:14.435Z,12.27
2022-09-24T04:02:41.228Z,13.30
2022-09-24T04:05:07.972Z,14.13
2022-09-24T04:07:34.360Z,16.30
2022-09-24T04:10:00.746Z,14.73
2022-09-24T04:12:27.541Z,15.90
2022-09-24T04:14:54.087Z,15.67
2022-09-24T04:17:20.413Z,14.33
2022-09-24T04:19:46.775Z,24.07
2022-09-24T04:22:13.224Z,22.60
2022-09-24T04:24:39.551Z,32.57
2022-09-24T04:27:05.948Z,16.60
2022-09-24T04:29:32.473Z,13.63
2022-09-24T04:31:58.935Z,16.27
2022-09-24T04:34:25.322Z,12.53
2022-09-24T04:36:52.133Z,13.00
2022-09-24T04:39:18.493Z,13.53
2022-09-24T04:41:47.950Z,12.93
2022-09-24T04:44:15.310Z,15.40
2022-09-24T04:46:41.943Z,14.00
2022-09-24T04:49:09.291Z,41.53
2022-09-24T04:51:35.701Z,37.97
2022-09-24T04:54:02.946Z,21.50
2022-09-24T04:56:29.916Z,13.73
2022-09-24T04:58:56.855Z,14.03
2022-09-24T05:01:23.786Z,21.00
2022-09-24T05:03:50.195Z,16.17
2022-09-24T05:06:16.633Z,18.90
2022-09-24T05:08:43.014Z,17.63
2022-09-24T05:11:09.395Z,15.93
2022-09-24T05:13:35.939Z,18.07
2022-09-24T05:16:03.300Z,18.47
2022-09-24T05:18:29.795Z,19.80
2022-09-24T05:20:56.243Z,17.70
2022-09-24T05:23:22.575Z,20.43
2022-09-24T05:26:07.617Z,19.23
2022-09-24T05:28:33.963Z,90.97
2022-09-24T05:31:00.364Z,84.80
2022-09-24T05:33:26.931Z,34.63
2022-09-24T05:35:54.451Z,20.37
2022-09-24T05:38:20.862Z,18.67
2022-09-24T05:40:50.550Z,22.13
2022-09-24T05:43:17.617Z,17.90
2022-09-24T05:45:47.044Z,16.60
2022-09-24T05:48:13.446Z,20.30
2022-09-24T05:50:39.909Z,20.67
2022-09-24T05:53:06.310Z,18.37
2022-09-24T05:55:33.547Z,17.43
2022-09-24T05:58:03.874Z,16.63
2022-09-24T06:00:30.235Z,16.57
2022-09-24T06:03:01.625Z,20.70
2022-09-24T06:05:28.994Z,20.67
2022-09-24T06:07:56.201Z,19.07
2022-09-24T06:10:22.596Z,23.47
2022-09-24T06:12:50.571Z,17.03
2022-09-24T06:15:16.977Z,21.57
2022-09-24T06:17:43.306Z,26.07
2022-09-24T06:20:09.790Z,22.00
2022-09-24T06:22:36.122Z,26.63
2022-09-24T06:25:02.459Z,22.37
2022-09-24T06:27:28.843Z,109.97
2022-09-24T06:29:55.178Z,48.93
2022-09-24T06:32:23.457Z,29.23
2022-09-24T06:34:49.876Z,22.57
2022-09-24T06:37:16.398Z,22.57
2022-09-24T06:39:42.749Z,25.97
2022-09-24T06:42:09.146Z,20.97
2022-09-24T06:44:35.635Z,25.23
2022-09-24T06:47:02.077Z,25.27
2022-09-24T06:49:33.859Z,26.03
2022-09-24T06:52:00.762Z,23.40
2022-09-24T06:54:27.148Z,22.00
2022-09-24T06:56:53.495Z,25.43
2022-09-24T06:59:19.818Z,21.70
2022-09-24T07:01:46.198Z,25.23
2022-09-24T07:04:12.547Z,23.23
2022-09-24T07:06:57.736Z,23.60
2022-09-24T07:09:24.639Z,26.20
2022-09-24T07:11:51.783Z,22.37
2022-09-24T07:14:21.187Z,23.83
2022-09-24T07:16:47.587Z,24.60
2022-09-24T07:19:13.926Z,26.03
2022-09-24T07:21:40.279Z,24.57
2022-09-24T07:24:06.763Z,27.17
2022-09-24T07:26:33.099Z,30.13
2022-09-24T07:28:59.481Z,29.03
2022-09-24T07:31:27.075Z,27.87
2022-09-24T07:33:53.538Z,28.57
2022-09-24T07:36:19.878Z,28.10
2022-09-24T07:38:46.605Z,31.23
2022-09-24T07:41:13.137Z,26.50
2022-09-24T07:43:39.490Z,26.00
2022-09-24T07:46:06.673Z,27.67
2022-09-24T07:48:33.045Z,25.10
2022-09-24T07:50:59.486Z,33.80
2022-09-24T07:53:25.872Z,29.30
2022-09-24T07:55:52.713Z,29.43
2022-09-24T07:58:19.520Z,35.90
2022-09-24T08:00:46.593Z,36.43
2022-09-24T08:03:12.928Z,27.90
2022-09-24T08:05:45.433Z,29.00
2022-09-24T08:08:11.935Z,30.13
2022-09-24T08:10:38.489Z,31.13
2022-09-24T08:13:04.961Z,32.10
2022-09-24T08:15:31.468Z,33.07
2022-09-24T08:18:03.329Z,37.93
2022-09-24T08:20:30.595Z,36.07
2022-09-24T08:23:03.514Z,32.67
2022-09-24T08:25:31.287Z,32.17
2022-09-24T08:28:07.650Z,38.53
2022-09-24T08:30:34.649Z,31.60
2022-09-24T08:33:01.403Z,33.07
2022-09-24T08:35:27.762Z,33.03
2022-09-24T08:37:54.792Z,34.63
2022-09-24T08:40:23.673Z,32.83
2022-09-24T08:42:50.163Z,35.57
2022-09-24T08:45:35.474Z,35.37
2022-09-24T08:48:08.383Z,33.67
2022-09-24T08:50:36.339Z,32.13
2022-09-24T08:53:21.392Z,32.53
2022-09-24T08:55:49.770Z,35.00
2022-09-24T08:58:19.244Z,33.60
2022-09-24T09:00:56.088Z,32.63
2022-09-24T09:03:34.532Z,31.53
2022-09-24T09:06:07.068Z,30.70
2022-09-24T09:09:01.668Z,28.33
2022-09-24T09:11:31.723Z,45.90
2022-09-24T09:14:04.777Z,31.67
2022-09-24T09:16:35.105Z,31.13
2022-09-24T09:19:06.145Z,29.10
2022-09-24T09:21:43.359Z,27.30
2022-09-24T09:24:21.147Z,27.43
2022-09-24T09:26:49.026Z,25.77
2022-09-24T09:29:16.359Z,29.50
2022-09-24T09:32:01.491Z,29.70
2022-09-24T09:34:37.917Z,33.37
2022-09-24T09:37:07.431Z,33.93
2022-09-24T09:39:37.509Z,38.80
2022-09-24T09:42:08.814Z,38.90
2022-09-24T09:44:42.213Z,38.00
2022-09-24T09:47:17.495Z,35.93
2022-09-24T09:49:45.575Z,39.43
2022-09-24T09:52:14.936Z,35.10
2022-09-24T09:54:45.014Z,38.10
2022-09-24T09:57:18.165Z,40.70
2022-09-24T09:59:49.294Z,34.33
2022-09-24T10:02:24.569Z,37.47
2022-09-24T10:05:03.875Z,41.77
2022-09-24T10:07:31.822Z,33.97
2022-09-24T10:09:59.772Z,39.73
2022-09-24T10:12:26.771Z,36.17
2022-09-24T10:14:57.319Z,35.10
2022-09-24T10:17:27.231Z,40.83
2022-09-24T10:19:54.455Z,35.57
2022-09-24T10:22:26.454Z,32.90
2022-09-24T10:24:54.438Z,35.83
2022-09-24T10:27:26.735Z,38.77
2022-09-24T10:30:13.466Z,36.23
2022-09-24T10:32:40.889Z,36.43
2022-09-24T10:35:30.789Z,40.93
2022-09-24T10:37:58.851Z,31.60
2022-09-24T10:40:28.493Z,32.37
2022-09-24T10:42:56.038Z,39.57
2022-09-24T10:45:27.291Z,41.97
2022-09-24T10:47:55.989Z,44.10
2022-09-24T10:50:42.463Z,38.27
2022-09-24T10:53:19.405Z,39.23
2022-09-24T10:55:48.819Z,40.03
2022-09-24T10:58:23.266Z,38.37
2022-09-24T11:01:08.411Z,36.10
2022-09-24T11:03:51.015Z,37.07
2022-09-24T11:06:35.830Z,34.47
2022-09-24T11:09:16.843Z,36.03
2022-09-24T11:11:49.662Z,45.70
2022-09-24T11:14:25.618Z,41.77
2022-09-24T11:17:21.302Z,43.50
2022-09-24T11:19:53.471Z,49.07
2022-09-24T11:22:23.189Z,38.93
2022-09-24T11:24:49.584Z,38.20
2022-09-24T11:27:34.819Z,37.57
2022-09-24T11:30:07.394Z,41.97
2022-09-24T11:32:36.731Z,37.20
2022-09-24T11:35:23.320Z,37.97
2022-09-24T11:37:55.824Z,39.03
2022-09-24T11:40:29.494Z,38.37
2022-09-24T11:43:09.386Z,36.20
2022-09-24T11:45:35.707Z,36.87
2022-09-24T11:48:17.294Z,38.10
2022-09-24T11:51:07.335Z,36.03
2022-09-24T11:53:36.901Z,34.33
2022-09-24T11:56:13.432Z,35.57
2022-09-24T11:58:43.906Z,37.10
2022-09-24T12:01:30.621Z,36.70
2022-09-24T12:04:06.427Z,29.00
2022-09-24T12:06:54.262Z,31.60
2022-09-24T12:09:39.509Z,34.70
2022-09-24T12:12:14.012Z,34.00
2022-09-24T12:14:46.173Z,34.40
2022-09-24T12:17:18.136Z,35.00
2022-09-24T12:19:50.431Z,31.73
2022-09-24T12:22:18.400Z,34.07
2022-09-24T12:24:58.539Z,32.43
2022-09-24T12:27:34.955Z,27.87
2022-09-24T12:30:31.766Z,29.33
2022-09-24T12:33:00.642Z,34.23
2022-09-24T12:35:33.111Z,30.03
2022-09-24T12:38:05.131Z,24.47
2022-09-24T12:40:37.311Z,29.67
2022-09-24T12:43:05.712Z,31.40
2022-09-24T12:45:34.330Z,30.60
2022-09-24T12:48:01.845Z,31.43
2022-09-24T12:50:29.600Z,28.53
2022-09-24T12:52:57.212Z,30.30
2022-09-24T12:55:25.493Z,35.57
2022-09-24T12:57:55.366Z,29.87
2022-09-24T13:00:40.080Z,33.33
2022-09-24T13:03:07.598Z,28.73
2022-09-24T13:05:46.043Z,27.20
2022-09-24T13:08:17.010Z,27.93
2022-09-24T13:10:53.926Z,28.97
2022-09-24T13:13:34.304Z,29.57
2022-09-24T13:16:01.644Z,27.70
2022-09-24T13:18:28.353Z,28.53
2022-09-24T13:21:00.337Z,30.20
2022-09-24T13:23:27.571Z,30.07
2022-09-24T13:26:04.836Z,28.90
2022-09-24T13:28:38.900Z,28.87
2022-09-24T13:31:21.197Z,28.93
2022-09-24T13:33:49.689Z,30.43
2022-09-24T13:36:21.823Z,28.60
2022-09-24T13:38:51.257Z,29.07
2022-09-24T13:41:30.113Z,30.20
2022-09-24T13:44:01.624Z,28.13
2022-09-24T13:46:28.660Z,27.50
2022-09-24T13:49:01.093Z,26.10
2022-09-24T13:51:30.172Z,26.60
2022-09-24T13:54:04.538Z,23.83
2022-09-24T13:56:31.438Z,27.90
2022-09-24T13:59:06.448Z,24.17
2022-09-24T14:01:36.677Z,26.63
2022-09-24T14:04:05.516Z,25.53
2022-09-24T14:06:34.663Z,26.90
2022-09-24T14:09:01.378Z,29.57
2022-09-24T14:11:27.906Z,25.07
2022-09-24T14:13:56.483Z,25.43
2022-09-24T14:16:23.999Z,26.57
2022-09-24T14:19:00.683Z,25.97
2022-09-24T14:21:38.487Z,23.17
2022-09-24T14:24:07.669Z,25.67
2022-09-24T14:26:36.813Z,24.50
2022-09-24T14:29:08.504Z,27.27
2022-09-24T14:31:42.498Z,25.33
2022-09-24T14:34:19.340Z,24.80
2022-09-24T14:36:45.807Z,28.50
2022-09-24T14:39:13.535Z,26.20
2022-09-24T14:41:39.896Z,31.10
2022-09-24T14:44:09.059Z,27.30
2022-09-24T14:46:38.257Z,32.10
2022-09-24T14:49:18.567Z,28.13
2022-09-24T14:51:51.880Z,27.00
2022-09-24T14:54:29.105Z,28.90
2022-09-24T14:56:55.697Z,30.80
2022-09-24T14:59:29.201Z,33.53
2022-09-24T15:02:03.709Z,29.43
2022-09-24T15:04:30.478Z,27.90
2022-09-24T15:06:57.005Z,29.60
2022-09-24T15:09:27.897Z,24.47
2022-09-24T15:11:55.377Z,24.33
2022-09-24T15:14:27.553Z,27.73
2022-09-24T15:16:55.153Z,28.70
2022-09-24T15:19:27.122Z,54.23
2022-09-24T15:21:56.741Z,33.27
2022-09-24T15:24:23.435Z,29.43
2022-09-24T15:27:00.675Z,24.23
2022-09-24T15:29:27.028Z,27.03
2022-09-24T15:31:54.171Z,26.67
2022-09-24T15:34:20.770Z,27.60
2022-09-24T15:36:48.027Z,25.00
2022-09-24T15:39:14.671Z,30.53
2022-09-24T15:41:41.081Z,34.17
2022-09-24T15:44:14.938Z,29.57
2022-09-24T15:46:41.843Z,30.50
2022-09-24T15:49:08.351Z,27.20
2022-09-24T15:51:34.803Z,32.23
2022-09-24T15:54:01.175Z,33.07
2022-09-24T15:56:28.288Z,31.97
2022-09-24T15:58:55.660Z,26.23
2022-09-24T16:01:22.165Z,30.77
2022-09-24T16:03:48.619Z,28.17
2022-09-24T16:06:14.966Z,27.23
2022-09-24T16:08:42.418Z,28.07
2022-09-24T16:11:09.396Z,42.50
2022-09-24T16:13:35.965Z,52.83
2022-09-24T16:16:05.440Z,32.27
2022-09-24T16:18:32.139Z,26.70
2022-09-24T16:20:58.483Z,26.47
2022-09-24T16:23:24.863Z,31.23
2022-09-24T16:25:55.525Z,28.40
2022-09-24T16:28:22.201Z,25.17
2022-09-24T16:30:48.666Z,30.30
2022-09-24T16:33:15.041Z,31.77
2022-09-24T16:35:41.406Z,29.53
2022-09-24T16:38:07.910Z,33.73
2022-09-24T16:40:34.365Z,27.63
2022-09-24T16:43:00.835Z,29.63
2022-09-24T16:45:27.160Z,26.53
2022-09-24T16:47:53.577Z,29.67
2022-09-24T16:50:20.312Z,29.00
2022-09-24T16:52:49.235Z,36.10
2022-09-24T16:55:15.979Z,32.03
2022-09-24T16:57:42.567Z,34.70
2022-09-24T17:00:10.152Z,36.17
2022-09-24T17:02:36.892Z,33.63
2022-09-24T17:05:03.451Z,35.50
2022-09-24T17:07:30.707Z,33.77
2022-09-24T17:10:15.932Z,31.13
2022-09-24T17:12:46.790Z,32.37
2022-09-24T17:15:16.824Z,34.83
2022-09-24T17:17:49.892Z,33.60
2022-09-24T17:20:17.338Z,37.23
2022-09-24T17:22:43.675Z,35.80
2022-09-24T17:25:10.115Z,36.63
2022-09-24T17:27:36.577Z,38.50
2022-09-24T17:30:03.531Z,38.70
2022-09-24T17:32:29.914Z,36.77
2022-09-24T17:34:56.323Z,38.63
2022-09-24T17:37:23.376Z,41.57
2022-09-24T17:39:49.986Z,37.80
2022-09-24T17:42:16.544Z,40.80
2022-09-24T17:44:42.921Z,38.20
2022-09-24T17:47:09.308Z,40.13
2022-09-24T17:49:35.727Z,40.63
2022-09-24T17:52:02.480Z,36.37
2022-09-24T17:54:28.871Z,39.57
2022-09-24T17:56:55.200Z,42.53
2022-09-24T17:59:26.284Z,44.87
2022-09-24T18:01:53.343Z,35.23
2022-09-24T18:04:20.579Z,37.20
2022-09-24T18:06:47.687Z,38.70
2022-09-24T18:09:14.760Z,37.63
2022-09-24T18:11:45.531Z,37.47
2022-09-24T18:14:14.763Z,41.50
2022-09-24T18:16:41.351Z,44.43
2022-09-24T18:19:07.940Z,41.97
2022-09-24T18:21:34.310Z,40.30
2022-09-24T18:24:00.828Z,39.80
2022-09-24T18:26:29.354Z,41.67
2022-09-24T18:28:57.828Z,42.47
2022-09-24T18:31:28.174Z,40.43
2022-09-24T18:33:55.268Z,39.97
2022-09-24T18:36:22.752Z,42.97
2022-09-24T18:38:49.190Z,39.87
2022-09-24T18:41:20.016Z,46.50
2022-09-24T18:43:46.434Z,44.87
2022-09-24T18:46:14.039Z,54.20
2022-09-24T18:48:44.550Z,49.50
2022-09-24T18:51:21.192Z,44.60
2022-09-24T18:53:51.104Z,49.07
2022-09-24T18:56:17.434Z,44.03
2022-09-24T18:58:45.468Z,46.73
2022-09-24T19:01:11.910Z,47.17
2022-09-24T19:03:39.720Z,45.03
2022-09-24T19:06:06.555Z,43.07
2022-09-24T19:08:34.079Z,42.70
2022-09-24T19:11:07.810Z,44.87
2022-09-24T19:13:36.562Z,42.17
2022-09-24T19:16:04.880Z,42.40
2022-09-24T19:18:31.583Z,43.07
2022-09-24T19:20:57.935Z,42.70
2022-09-24T19:23:24.303Z,41.57
2022-09-24T19:25:51.215Z,43.43
2022-09-24T19:28:17.538Z,43.60
2022-09-24T19:30:44.938Z,42.17
2022-09-24T19:33:15.779Z,33.90
2022-09-24T19:35:45.755Z,41.97
2022-09-24T19:38:12.079Z,37.00
2022-09-24T19:40:38.558Z,38.70
2022-09-24T19:43:05.178Z,39.80
2022-09-24T19:45:31.659Z,34.03
2022-09-24T19:47:59.040Z,31.80
2022-09-24T19:50:25.763Z,35.73
2022-09-24T19:52:52.158Z,31.10
2022-09-24T19:55:18.472Z,33.53
2022-09-24T19:57:44.804Z,33.93
2022-09-24T20:00:11.367Z,29.13
2022-09-24T20:02:37.852Z,30.30
2022-09-24T20:05:04.346Z,29.40
2022-09-24T20:07:30.747Z,27.80
2022-09-24T20:09:57.076Z,32.47
2022-09-24T20:12:23.419Z,34.13
2022-09-24T20:14:51.327Z,33.77
2022-09-24T20:17:17.710Z,33.03
2022-09-24T20:19:44.089Z,32.03
2022-09-24T20:22:15.142Z,32.33
2022-09-24T20:24:43.515Z,34.83
2022-09-24T20:27:30.063Z,34.67
2022-09-24T20:29:56.463Z,31.43
2022-09-24T20:32:22.830Z,34.00
2022-09-24T20:34:49.192Z,35.13
2022-09-24T20:37:15.614Z,31.60
2022-09-24T20:39:41.959Z,30.80
2022-09-24T20:42:08.306Z,34.43
2022-09-24T20:44:37.711Z,32.27
2022-09-24T20:47:04.161Z,34.57
2022-09-24T20:49:30.567Z,36.33
2022-09-24T20:51:57.993Z,33.07
2022-09-24T20:54:25.293Z,36.90
2022-09-24T20:56:51.637Z,29.63
2022-09-24T20:59:18.064Z,33.23
2022-09-24T21:01:44.765Z,28.00
2022-09-24T21:04:11.501Z,29.97
2022-09-24T21:06:38.126Z,30.63
2022-09-24T21:09:04.493Z,35.13
2022-09-24T21:11:31.152Z,34.80
2022-09-24T21:14:00.953Z,28.60
2022-09-24T21:16:28.985Z,31.27
2022-09-24T21:18:55.663Z,35.90
2022-09-24T21:21:23.136Z,33.20
2022-09-24T21:23:50.474Z,32.13
2022-09-24T21:26:20.712Z,40.17
2022-09-24T21:28:48.923Z,33.50
2022-09-24T21:31:16.754Z,31.43
2022-09-24T21:33:47.386Z,31.00
2022-09-24T21:36:18.565Z,37.90
2022-09-24T21:39:05.383Z,30.63
2022-09-24T21:41:32.723Z,33.93
2022-09-24T21:43:59.341Z,34.43
2022-09-24T21:46:26.444Z,31.30
2022-09-24T21:48:54.005Z,31.97
2022-09-24T21:51:22.045Z,28.43
2022-09-24T21:53:49.119Z,36.27
2022-09-24T21:56:18.843Z,34.60
2022-09-24T21:58:46.382Z,33.27
2022-09-24T22:01:15.614Z,32.47
2022-09-24T22:03:42.112Z,33.57
2022-09-24T22:06:08.534Z,31.97
2022-09-24T22:08:34.956Z,33.67
2022-09-24T22:11:02.694Z,33.07
2022-09-24T22:13:29.230Z,32.87
2022-09-24T22:15:57.633Z,33.67
2022-09-24T22:18:24.044Z,31.13
2022-09-24T22:20:50.454Z,32.60
2022-09-24T22:23:17.264Z,32.20
2022-09-24T22:25:46.927Z,28.53
2022-09-24T22:28:16.351Z,29.80
2022-09-24T22:30:46.367Z,28.83
2022-09-24T22:33:32.731Z,28.17
2022-09-24T22:35:59.104Z,29.87
2022-09-24T22:38:25.724Z,26.40
2022-09-24T22:40:52.359Z,30.97
2022-09-24T22:43:18.853Z,30.67
2022-09-24T22:45:45.252Z,27.77
2022-09-24T22:48:11.626Z,27.73
2022-09-24T22:50:37.975Z,28.73
2022-09-24T22:53:04.323Z,25.73
2022-09-24T22:55:30.680Z,28.93
2022-09-24T22:57:56.991Z,29.77
2022-09-24T23:00:23.406Z,32.50
2022-09-24T23:02:49.755Z,28.77
2022-09-24T23:05:16.362Z,26.57
2022-09-24T23:07:43.105Z,27.80
2022-09-24T23:10:09.686Z,27.90
2022-09-24T23:12:36.135Z,28.10
2022-09-24T23:15:03.465Z,28.37
2022-09-24T23:17:29.794Z,31.50
2022-09-24T23:19:56.152Z,28.00
2022-09-24T23:22:22.678Z,29.83
2022-09-24T23:24:50.753Z,29.80
2022-09-24T23:27:18.927Z,34.20
2022-09-24T23:29:45.552Z,28.20
2022-09-24T23:32:12.429Z,29.50
2022-09-24T23:34:38.852Z,29.30
2022-09-24T23:37:06.208Z,25.67
2022-09-24T23:39:32.813Z,25.60
2022-09-24T23:41:59.310Z,31.90
2022-09-24T23:44:25.748Z,33.77
2022-09-24T23:46:52.178Z,28.73
2022-09-24T23:49:18.571Z,32.53
2022-09-24T23:51:44.913Z,29.73
2022-09-24T23:54:11.339Z,28.70
2022-09-24T23:56:37.792Z,30.90
2022-09-24T23:59:04.337Z,28.33
